EETUEETN

Guest
Details From EETU - TARTU
To EETN - TALLINN
Flight Number -
Tags generated
Created
Modified
Stats Distance 93 nm / 171 km
Max Altitude 5,400 ft / 1,646 m
Waypoints 3
Social Downloads 1
Likes 0
Share VATSIM

Download

Looking for another format? Having issues loading an existing format? Contact us
Advertisement - Login to hide

Notes

Basic altitude profile: - Ascent Rate: 2500ft/min - Ascent Speed: 250kts - Cruise Altitude: 35000ft - Cruise Speed: 420kts - Descent Rate: 1500ft/min - Descent Speed: 250kts Options: - Use NATs: yes - Use PACOTS: yes - Use low airways: no - Use high airways: no

Route

EETU 5900N02500E EETN

ID Type Via Altitude Latitude Longitude Leg Dist Tot Dist Heading (true) Name
O EETU APT - 0 ft / 0 m 58.30746˚ 26.69043˚ - 0 nm - TARTU
5900N02500E LATLON - 5,400 ft / 1,646 m 59.00000˚ 25.00000˚ 67 nm 67 nm 309° / 307° -
O EETN APT - 0 ft / 0 m 59.41326˚ 24.83280˚ 25 nm 92 nm 348° / 348° TALLINN

Altitude Profile

Advertisement - Login to hide

EETU

Details ICAO EETU (TAY)
Name TARTU
Region Estonia
Timezone Europe/Tallinn (UTC+3.0)
Stats Elevation 219 ft / 67 m (AMSL)
Location 58.307462° 26.690427°
Runways 1
Magnetic Variation 9.008° E

METAR

EETU 230250Z AUTO 21004KT 9999 BKN074/// OVC100/// 12/07 Q1020

Decode

TAF

Not found

Departure Runways

ID Width Length Bearing (true) Bearing (mag) Surface Threshold Offset Overrun Length
08 115 ft / 35 m 4,510 ft / 1,375 m 88.42° 79.41° Asphalt 0 ft / 0 m 0 ft / 0 m
26 115 ft / 35 m 4,510 ft / 1,375 m 268.44° 259.43° Asphalt 0 ft / 0 m 0 ft / 0 m

EETN

Details ICAO EETN (TLL)
Name TALLINN
Region Estonia
Timezone Europe/Tallinn (UTC+3.0)
Stats Elevation 131 ft / 40 m (AMSL)
Location 59.413257° 24.832803°
Runways 1
Magnetic Variation 8.703° E

METAR

EETN 230320Z 25011KT CAVOK 15/11 Q1018

Decode

TAF

TAF EETN 222320Z 2300/2324 25010KT 9999 SCT040 PROB40 TEMPO 2300/2312 SCT030CB BKN040

Decode

Destination Runways

ID Width Length Bearing (true) Bearing (mag) Surface Threshold Offset Overrun Length
08 148 ft / 45 m 10,023 ft / 3,055 m 90.24° 81.54° Asphalt 820 ft / 250 m 0 ft / 0 m
26 148 ft / 45 m 10,023 ft / 3,055 m 270.28° 261.58° Asphalt 0 ft / 0 m 184 ft / 56 m

Approach Navaids

Runway Type Ident Frequency Range Bearing (true) Bearing (mag) Slope Elevation
08 Localiser IIB 111.70 MHz 18 nm / 33 km 90.33° 81.63° - 131 ft / 40 m (AMSL)
08 Glidescope IIB 111.70 MHz 10 nm / 19 km 90.26° 81.56° 3.00° 131 ft / 40 m (AMSL)
26 Localiser ILK 110.30 MHz 18 nm / 33 km 270.24° 261.54° - 131 ft / 40 m (AMSL)
26 Glidescope ILK 110.30 MHz 10 nm / 19 km 270.26° 261.56° 3.00° 131 ft / 40 m (AMSL)

Popular Alternatives